Saint Marks, Florida
Current Conditions -  °F | °C
As of 10:53 AM on Thursday 27 Nov 2014 (Local Time) from KTLH Reporting Station
Clear Clear  
Wind Chill: 14°   Ceiling: Unl
Heat Index: 14°   Visibility: 10mi
Dew Point:   Wind: 10mph
Humidity: 39%   Direction: 340°NNW
Pressure: 30.32"   Gusts: NA
Location:  30.16°N, 84.21°W
Report Text: KTLH 271553Z 34009KT 10SM CLR 14/01 A3032 RMK AO2 SLP266 T01440006 $
Loading
Personal Weather Stations






























Interactive Weather Map New forecast layout! Learn more

10-Day Weather Forecast

Advertisements
Track Severe Weather on mobile